createdAt,value
2019-05-29T00:00:57.460Z,14.73
2019-05-29T00:03:25.764Z,15.58
2019-05-29T00:05:53.971Z,14.80
2019-05-29T00:08:22.166Z,16.87
2019-05-29T00:10:50.409Z,10.80
2019-05-29T00:13:18.631Z,15.38
2019-05-29T00:15:46.873Z,11.70
2019-05-29T00:18:15.121Z,16.55
2019-05-29T00:20:43.305Z,14.43
2019-05-29T00:23:12.553Z,13.70
2019-05-29T00:25:41.180Z,10.35
2019-05-29T00:28:10.535Z,11.10
2019-05-29T00:30:38.790Z,14.70
2019-05-29T00:33:07.979Z,10.68
2019-05-29T00:35:36.508Z,14.55
2019-05-29T00:38:04.756Z,10.20
2019-05-29T00:40:33.005Z,15.10
2019-05-29T00:43:01.230Z,14.50
2019-05-29T00:45:29.466Z,13.18
2019-05-29T00:47:58.013Z,9.40
2019-05-29T00:50:26.332Z,7.65
2019-05-29T00:52:54.566Z,12.85
2019-05-29T00:55:22.804Z,8.45
2019-05-29T00:57:50.971Z,9.38
2019-05-29T01:00:19.576Z,8.78
2019-05-29T01:02:47.939Z,8.80
2019-05-29T01:05:16.420Z,11.25
2019-05-29T01:07:44.640Z,11.00
2019-05-29T01:10:14.606Z,12.35
2019-05-29T01:12:43.109Z,12.78
2019-05-29T01:15:11.428Z,11.05
2019-05-29T01:17:40.104Z,9.98
2019-05-29T01:20:08.428Z,15.18
2019-05-29T01:22:36.646Z,12.47
2019-05-29T01:25:06.498Z,12.55
2019-05-29T01:27:34.726Z,19.67
2019-05-29T01:30:03.511Z,14.63
2019-05-29T01:32:31.808Z,12.88
2019-05-29T01:35:00.100Z,13.98
2019-05-29T01:37:28.583Z,16.42
2019-05-29T01:39:56.871Z,15.85
2019-05-29T01:42:25.068Z,14.03
2019-05-29T01:45:06.598Z,16.02
2019-05-29T01:47:23.649Z,18.55
2019-05-29T01:49:52.005Z,16.55
2019-05-29T01:52:20.235Z,13.38
2019-05-29T01:54:48.474Z,20.20
2019-05-29T01:57:17.748Z,13.32
2019-05-29T01:59:46.254Z,16.77
2019-05-29T02:02:15.673Z,15.88
2019-05-29T02:04:44.249Z,17.48
2019-05-29T02:07:12.479Z,20.27
2019-05-29T02:09:40.734Z,16.25
2019-05-29T02:12:08.897Z,18.73
2019-05-29T02:14:37.122Z,20.05
2019-05-29T02:17:05.402Z,16.45
2019-05-29T02:19:33.624Z,16.97
2019-05-29T02:22:01.878Z,18.40
2019-05-29T02:24:30.133Z,19.50
2019-05-29T02:26:58.373Z,17.73
2019-05-29T02:29:26.967Z,16.50
2019-05-29T02:31:55.480Z,21.73
2019-05-29T02:34:25.545Z,19.10
2019-05-29T02:36:53.603Z,17.35
2019-05-29T02:39:23.105Z,16.32
2019-05-29T02:41:51.753Z,19.20
2019-05-29T02:44:21.136Z,18.40
2019-05-29T02:46:49.584Z,15.85
2019-05-29T02:49:19.738Z,20.05
2019-05-29T02:51:47.665Z,19.17
2019-05-29T02:54:15.943Z,18.82
2019-05-29T02:56:44.183Z,18.02
2019-05-29T02:59:12.485Z,22.00
2019-05-29T03:01:40.797Z,16.48
2019-05-29T03:04:09.272Z,19.32
2019-05-29T03:06:37.966Z,19.32
2019-05-29T03:09:06.722Z,15.35
2019-05-29T03:11:34.980Z,15.78
2019-05-29T03:14:03.225Z,21.37
2019-05-29T03:16:32.839Z,19.80
2019-05-29T03:19:01.347Z,21.25
2019-05-29T03:21:30.611Z,16.93
2019-05-29T03:23:59.584Z,17.92
2019-05-29T03:26:30.305Z,17.42
2019-05-29T03:28:57.726Z,19.10
2019-05-29T03:31:29.999Z,19.90
2019-05-29T03:33:55.961Z,17.98
2019-05-29T03:36:24.172Z,16.42
2019-05-29T03:38:53.328Z,17.95
2019-05-29T03:41:21.544Z,19.73
2019-05-29T03:43:49.810Z,21.00
2019-05-29T03:46:29.793Z,18.17
2019-05-29T03:48:48.532Z,23.52
2019-05-29T03:51:16.751Z,25.62
2019-05-29T03:53:45.365Z,22.62
2019-05-29T03:56:13.616Z,26.65
2019-05-29T03:58:41.844Z,29.35
2019-05-29T04:01:10.547Z,30.70
2019-05-29T04:03:38.954Z,29.15
2019-05-29T04:06:07.305Z,33.40
2019-05-29T04:08:35.893Z,32.13
2019-05-29T04:11:05.777Z,30.92
2019-05-29T04:13:36.181Z,28.92
2019-05-29T04:16:04.771Z,25.95
2019-05-29T04:18:35.803Z,28.95
2019-05-29T04:21:04.360Z,33.20
2019-05-29T04:23:36.264Z,26.55
2019-05-29T04:26:04.777Z,31.30
2019-05-29T04:28:34.862Z,28.35
2019-05-29T04:31:03.279Z,26.15
2019-05-29T04:33:32.621Z,25.20
2019-05-29T04:36:01.543Z,27.48
2019-05-29T04:38:31.007Z,33.08
2019-05-29T04:40:59.697Z,22.07
2019-05-29T04:43:28.849Z,27.60
2019-05-29T04:45:57.286Z,25.88
2019-05-29T04:48:25.772Z,24.95
2019-05-29T04:50:54.017Z,21.52
2019-05-29T04:53:22.284Z,22.02
2019-05-29T04:55:50.434Z,19.05
2019-05-29T04:58:18.680Z,19.85
2019-05-29T05:00:58.628Z,17.35
2019-05-29T05:03:16.875Z,18.98
2019-05-29T05:05:45.115Z,18.50
2019-05-29T05:08:13.414Z,14.40
2019-05-29T05:10:42.212Z,13.30
2019-05-29T05:13:10.434Z,14.58
2019-05-29T05:15:40.135Z,18.92
2019-05-29T05:18:08.728Z,12.23
2019-05-29T05:20:38.153Z,14.58
2019-05-29T05:23:06.629Z,13.83
2019-05-29T05:25:36.331Z,14.83
2019-05-29T05:28:05.004Z,16.50
2019-05-29T05:30:34.294Z,20.10
2019-05-29T05:33:02.886Z,14.43
2019-05-29T05:35:31.105Z,17.67
2019-05-29T05:37:59.384Z,16.87
2019-05-29T05:40:27.598Z,15.40
2019-05-29T05:42:55.846Z,19.70
2019-05-29T05:45:24.131Z,20.48
2019-05-29T05:47:57.234Z,18.32
2019-05-29T05:50:22.368Z,16.10
2019-05-29T05:52:50.707Z,18.67
2019-05-29T05:55:19.310Z,17.40
2019-05-29T05:57:47.558Z,19.60
2019-05-29T06:00:17.388Z,18.10
2019-05-29T06:02:45.611Z,16.20
2019-05-29T06:05:14.113Z,10.23
2019-05-29T06:07:42.578Z,10.25
2019-05-29T06:10:10.991Z,12.68
2019-05-29T06:12:40.487Z,13.32
2019-05-29T06:15:09.164Z,9.25
2019-05-29T06:17:38.577Z,9.93
2019-05-29T06:20:07.758Z,12.80
2019-05-29T06:22:36.872Z,12.10
2019-05-29T06:25:05.716Z,14.13
2019-05-29T06:27:35.496Z,19.73
2019-05-29T06:30:05.316Z,14.47
2019-05-29T06:32:33.573Z,13.55
2019-05-29T06:35:01.899Z,14.20
2019-05-29T06:37:30.538Z,17.73
2019-05-29T06:39:58.751Z,17.92
2019-05-29T06:42:26.906Z,20.23
2019-05-29T06:44:55.221Z,18.62
2019-05-29T06:47:23.627Z,15.78
2019-05-29T06:49:51.870Z,20.60
2019-05-29T06:52:20.174Z,12.33
2019-05-29T06:54:48.381Z,12.20
2019-05-29T06:57:16.596Z,12.78
2019-05-29T06:59:44.878Z,10.20
2019-05-29T07:02:13.933Z,10.65
2019-05-29T07:04:42.547Z,12.28
2019-05-29T07:07:11.072Z,13.30
2019-05-29T07:09:39.276Z,12.75
2019-05-29T07:12:07.454Z,12.90
2019-05-29T07:14:36.373Z,19.40
2019-05-29T07:17:04.860Z,12.90
2019-05-29T07:19:47.595Z,10.88
2019-05-29T07:22:03.005Z,7.87
2019-05-29T07:24:31.213Z,7.90
2019-05-29T07:26:59.493Z,9.95
2019-05-29T07:29:28.147Z,12.28
2019-05-29T07:31:56.370Z,8.93
2019-05-29T07:34:24.901Z,9.13
2019-05-29T07:36:53.172Z,7.25
2019-05-29T07:39:21.389Z,11.38
2019-05-29T07:41:49.568Z,9.35
2019-05-29T07:44:17.829Z,9.90
2019-05-29T07:46:47.125Z,6.72
2019-05-29T07:49:15.931Z,7.90
2019-05-29T07:51:45.091Z,6.35
2019-05-29T07:54:13.866Z,12.43
2019-05-29T07:56:42.427Z,11.08
2019-05-29T07:59:10.976Z,6.95
2019-05-29T08:01:39.176Z,9.43
2019-05-29T08:04:07.438Z,7.25
2019-05-29T08:06:35.684Z,10.50
2019-05-29T08:09:05.480Z,9.28
2019-05-29T08:11:33.688Z,8.60
2019-05-29T08:14:01.976Z,5.87
2019-05-29T08:16:30.176Z,5.87
2019-05-29T08:18:58.326Z,4.80
2019-05-29T08:21:26.572Z,5.97
2019-05-29T08:23:54.827Z,9.15
2019-05-29T08:26:23.063Z,7.97
2019-05-29T08:28:51.380Z,7.72
2019-05-29T08:31:20.201Z,7.33
2019-05-29T08:33:48.976Z,18.50
2019-05-29T08:36:17.277Z,32.88
2019-05-29T08:38:45.772Z,33.18
2019-05-29T08:41:14.284Z,29.87
2019-05-29T08:43:42.606Z,39.60
2019-05-29T08:46:10.776Z,43.70
2019-05-29T08:48:39.026Z,43.70
2019-05-29T08:51:07.272Z,47.83
2019-05-29T08:53:35.533Z,47.73
2019-05-29T08:56:04.145Z,46.50
2019-05-29T08:58:32.439Z,44.55
2019-05-29T09:01:00.686Z,48.13
2019-05-29T09:03:28.889Z,37.08
2019-05-29T09:06:08.391Z,35.13
2019-05-29T09:08:27.059Z,31.73
2019-05-29T09:10:55.262Z,37.88
2019-05-29T09:13:23.813Z,41.08
2019-05-29T09:15:52.072Z,52.48
2019-05-29T09:18:21.482Z,35.35
2019-05-29T09:21:02.620Z,38.50
2019-05-29T09:23:20.930Z,50.03
2019-05-29T09:25:49.444Z,44.95
2019-05-29T09:28:19.990Z,44.60
2019-05-29T09:30:47.045Z,46.63
2019-05-29T09:33:17.596Z,42.90
2019-05-29T09:35:45.148Z,38.55
2019-05-29T09:38:14.071Z,32.05
2019-05-29T09:40:43.698Z,30.12
2019-05-29T09:43:12.058Z,33.33
2019-05-29T09:45:40.330Z,28.25
2019-05-29T09:48:08.606Z,26.75
2019-05-29T09:50:49.713Z,24.52
2019-05-29T09:53:06.749Z,21.05
2019-05-29T09:55:34.962Z,17.32
2019-05-29T09:58:03.213Z,18.15
2019-05-29T10:00:31.428Z,14.93
2019-05-29T10:02:59.687Z,16.12
2019-05-29T10:05:28.145Z,16.17
2019-05-29T10:07:59.773Z,14.70
2019-05-29T10:10:28.072Z,33.50
2019-05-29T10:12:58.122Z,17.12
2019-05-29T10:15:26.286Z,14.85
2019-05-29T10:17:55.868Z,11.75
2019-05-29T10:20:24.839Z,9.13
2019-05-29T10:22:53.075Z,11.25
2019-05-29T10:25:21.295Z,9.55
2019-05-29T10:27:50.048Z,10.72
2019-05-29T10:30:18.540Z,10.40
2019-05-29T10:32:48.067Z,13.55
2019-05-29T10:35:16.626Z,9.53
2019-05-29T10:37:44.849Z,10.80
2019-05-29T10:40:13.430Z,11.15
2019-05-29T10:42:42.951Z,8.25
2019-05-29T10:45:12.334Z,7.85
2019-05-29T10:47:40.584Z,10.35
2019-05-29T10:50:09.966Z,12.40
2019-05-29T10:52:38.446Z,9.70
2019-05-29T10:55:08.356Z,13.70
2019-05-29T10:57:36.621Z,12.53
2019-05-29T11:00:05.764Z,11.22
2019-05-29T11:02:33.940Z,10.82
2019-05-29T11:05:02.263Z,12.18
2019-05-29T11:07:30.492Z,7.22
2019-05-29T11:09:58.666Z,11.08
2019-05-29T11:12:27.443Z,12.53
2019-05-29T11:14:56.825Z,9.30
2019-05-29T11:17:25.326Z,11.95
2019-05-29T11:19:53.662Z,5.90
2019-05-29T11:22:26.078Z,8.10
2019-05-29T11:24:52.378Z,5.08
2019-05-29T11:27:20.746Z,6.67
2019-05-29T11:29:48.985Z,7.55
2019-05-29T11:32:17.225Z,8.63
2019-05-29T11:34:45.477Z,6.58
2019-05-29T11:37:13.729Z,14.58
2019-05-29T11:39:41.943Z,4.12
2019-05-29T11:42:26.028Z,5.62
2019-05-29T11:44:40.077Z,10.25
2019-05-29T11:47:08.276Z,7.90
2019-05-29T11:49:36.529Z,9.70
2019-05-29T11:52:23.698Z,7.83
2019-05-29T11:54:35.064Z,6.30
2019-05-29T11:57:03.385Z,6.25
2019-05-29T11:59:33.387Z,9.08
2019-05-29T12:02:03.335Z,7.12
2019-05-29T12:04:31.574Z,8.15
2019-05-29T12:06:59.825Z,5.72
2019-05-29T12:09:33.067Z,9.70
2019-05-29T12:11:58.073Z,9.10
2019-05-29T12:14:26.342Z,9.98
2019-05-29T12:16:55.856Z,6.28
2019-05-29T12:19:24.418Z,8.03
2019-05-29T12:21:54.284Z,8.38
2019-05-29T12:24:22.534Z,7.95
2019-05-29T12:26:50.772Z,8.40
2019-05-29T12:29:18.921Z,7.87
2019-05-29T12:31:47.170Z,8.63
2019-05-29T12:34:19.145Z,5.72
2019-05-29T12:36:45.413Z,5.92
2019-05-29T12:39:13.569Z,11.78
2019-05-29T12:41:41.843Z,8.73
2019-05-29T12:44:10.144Z,8.20
2019-05-29T12:46:38.351Z,12.70
2019-05-29T12:49:06.690Z,7.53
2019-05-29T12:51:34.910Z,7.30
2019-05-29T12:54:05.097Z,9.38
2019-05-29T12:56:33.124Z,15.23
2019-05-29T12:59:02.678Z,18.90
2019-05-29T13:01:31.074Z,17.75
2019-05-29T13:04:00.477Z,12.50
2019-05-29T13:06:28.851Z,12.20
2019-05-29T13:08:58.356Z,9.93
2019-05-29T13:11:26.838Z,8.85
2019-05-29T13:13:56.213Z,8.65
2019-05-29T13:16:24.696Z,9.05
2019-05-29T13:18:52.945Z,9.48
2019-05-29T13:21:21.226Z,7.75
2019-05-29T13:23:49.434Z,6.97
2019-05-29T13:26:17.725Z,4.60
2019-05-29T13:28:45.987Z,9.33
2019-05-29T13:31:14.313Z,7.95
2019-05-29T13:33:42.574Z,3.83
2019-05-29T13:36:10.824Z,3.05
2019-05-29T13:38:39.781Z,9.13
2019-05-29T13:41:08.197Z,2.65
2019-05-29T13:43:36.433Z,3.77
2019-05-29T13:46:04.783Z,4.65
2019-05-29T13:48:32.997Z,5.60
2019-05-29T13:51:01.702Z,8.60
2019-05-29T13:53:30.634Z,7.90
2019-05-29T13:55:59.812Z,4.08
2019-05-29T13:58:28.342Z,3.90
2019-05-29T14:00:58.014Z,3.55
2019-05-29T14:03:26.652Z,4.87
2019-05-29T14:05:54.871Z,4.10
2019-05-29T14:08:23.409Z,3.27
2019-05-29T14:10:51.642Z,5.45
2019-05-29T14:13:19.876Z,4.47
2019-05-29T14:15:48.143Z,6.33
2019-05-29T14:18:16.367Z,4.30
2019-05-29T14:20:44.573Z,3.77
2019-05-29T14:23:12.868Z,5.15
2019-05-29T14:25:41.120Z,8.35
2019-05-29T14:28:09.484Z,7.10
2019-05-29T14:30:37.911Z,9.88
2019-05-29T14:33:07.310Z,7.20
2019-05-29T14:35:36.627Z,6.37
2019-05-29T14:38:08.907Z,13.20
2019-05-29T14:40:34.775Z,9.30
2019-05-29T14:43:06.756Z,9.80
2019-05-29T14:45:32.955Z,12.20
2019-05-29T14:48:02.158Z,10.08
2019-05-29T14:50:30.531Z,13.25
2019-05-29T14:52:58.771Z,9.25
2019-05-29T14:55:26.988Z,9.45
2019-05-29T14:57:55.243Z,45.88
2019-05-29T15:00:25.762Z,10.25
2019-05-29T15:02:53.518Z,7.72
2019-05-29T15:05:21.793Z,9.60
2019-05-29T15:07:50.053Z,9.88
2019-05-29T15:10:26.842Z,11.63
2019-05-29T15:12:48.704Z,12.47
2019-05-29T15:15:17.360Z,13.60
2019-05-29T15:17:45.636Z,8.20
2019-05-29T15:20:16.926Z,5.65
2019-05-29T15:22:45.361Z,9.25
2019-05-29T15:25:22.982Z,11.00
2019-05-29T15:27:44.380Z,7.25
2019-05-29T15:30:19.753Z,9.48
2019-05-29T15:32:42.963Z,9.85
2019-05-29T15:35:16.040Z,9.95
2019-05-29T15:37:41.891Z,16.12
2019-05-29T15:40:11.005Z,12.35
2019-05-29T15:42:39.536Z,14.20
2019-05-29T15:45:09.901Z,11.22
2019-05-29T15:47:38.243Z,12.82
2019-05-29T15:50:09.196Z,8.75
2019-05-29T15:52:37.775Z,8.58
2019-05-29T15:55:27.382Z,10.43
2019-05-29T15:57:40.563Z,10.75
2019-05-29T16:00:11.190Z,9.38
2019-05-29T16:02:40.172Z,9.08
2019-05-29T16:05:08.825Z,8.45
2019-05-29T16:07:37.030Z,11.55
2019-05-29T16:10:06.520Z,14.93
2019-05-29T16:12:34.834Z,8.35
2019-05-29T16:15:03.877Z,9.98
2019-05-29T16:17:32.052Z,9.98
2019-05-29T16:20:00.336Z,7.90
2019-05-29T16:22:28.588Z,9.15
2019-05-29T16:24:56.847Z,16.97
2019-05-29T16:27:30.596Z,9.08
2019-05-29T16:29:55.116Z,8.00
2019-05-29T16:32:24.128Z,10.08
2019-05-29T16:34:52.403Z,8.15
2019-05-29T16:37:22.002Z,7.22
2019-05-29T16:39:50.721Z,7.53
2019-05-29T16:42:20.451Z,10.90
2019-05-29T16:44:48.883Z,9.93
2019-05-29T16:47:18.692Z,8.83
2019-05-29T16:49:47.150Z,11.53
2019-05-29T16:52:16.735Z,7.15
2019-05-29T16:54:45.747Z,9.73
2019-05-29T16:57:15.168Z,11.50
2019-05-29T16:59:43.813Z,9.53
2019-05-29T17:02:13.540Z,8.93
2019-05-29T17:04:42.319Z,6.33
2019-05-29T17:07:10.525Z,11.43
2019-05-29T17:09:38.737Z,5.30
2019-05-29T17:12:06.954Z,6.47
2019-05-29T17:14:35.167Z,7.85
2019-05-29T17:17:03.448Z,10.18
2019-05-29T17:19:31.695Z,8.90
2019-05-29T17:21:59.913Z,35.75
2019-05-29T17:24:28.126Z,13.62
2019-05-29T17:26:56.361Z,7.95
2019-05-29T17:29:25.122Z,10.13
2019-05-29T17:31:53.534Z,7.00
2019-05-29T17:34:23.103Z,10.05
2019-05-29T17:36:51.594Z,12.40
2019-05-29T17:39:20.363Z,8.88
2019-05-29T17:41:49.623Z,6.37
2019-05-29T17:44:17.836Z,12.70
2019-05-29T17:46:46.141Z,5.85
2019-05-29T17:49:15.652Z,10.30
2019-05-29T17:51:44.122Z,9.25
2019-05-29T17:54:12.413Z,7.35
2019-05-29T17:56:40.624Z,8.30
2019-05-29T17:59:08.777Z,13.83
2019-05-29T18:01:37.067Z,10.20
2019-05-29T18:04:06.176Z,7.53
2019-05-29T18:06:34.393Z,7.17
2019-05-29T18:09:02.686Z,8.33
2019-05-29T18:11:30.917Z,11.18
2019-05-29T18:14:02.749Z,10.82
2019-05-29T18:16:29.036Z,8.23
2019-05-29T18:18:57.287Z,12.07
2019-05-29T18:21:25.796Z,12.53
2019-05-29T18:23:54.482Z,7.97
2019-05-29T18:26:24.094Z,5.25
2019-05-29T18:28:52.538Z,11.60
2019-05-29T18:31:20.840Z,10.78
2019-05-29T18:33:49.079Z,13.15
2019-05-29T18:36:17.339Z,35.00
2019-05-29T18:38:45.634Z,39.80
2019-05-29T18:41:13.931Z,10.95
2019-05-29T18:43:42.072Z,6.78
2019-05-29T18:46:10.253Z,10.00
2019-05-29T18:48:38.534Z,8.95
2019-05-29T18:51:06.737Z,7.80
2019-05-29T18:53:34.984Z,7.50
2019-05-29T18:56:03.153Z,9.85
2019-05-29T18:58:32.325Z,7.37
2019-05-29T19:01:01.020Z,8.43
2019-05-29T19:03:29.607Z,9.50
2019-05-29T19:05:57.886Z,10.70
2019-05-29T19:08:26.121Z,8.03
2019-05-29T19:10:54.333Z,8.35
2019-05-29T19:13:23.692Z,9.28
2019-05-29T19:15:52.259Z,6.83
2019-05-29T19:18:20.469Z,14.73
2019-05-29T19:20:49.923Z,11.22
2019-05-29T19:23:18.163Z,8.50
2019-05-29T19:25:46.458Z,17.52
2019-05-29T19:28:14.839Z,10.43
2019-05-29T19:30:43.134Z,10.75
2019-05-29T19:33:11.849Z,9.13
2019-05-29T19:35:40.323Z,10.68
2019-05-29T19:38:08.599Z,4.72
2019-05-29T19:40:36.915Z,8.48
2019-05-29T19:43:05.204Z,8.05
2019-05-29T19:45:34.621Z,9.90
2019-05-29T19:48:03.165Z,5.10
2019-05-29T19:50:31.561Z,8.28
2019-05-29T19:52:59.837Z,11.78
2019-05-29T19:55:32.661Z,6.97
2019-05-29T19:57:57.912Z,10.93
2019-05-29T20:00:26.418Z,7.15
2019-05-29T20:02:54.632Z,9.80
2019-05-29T20:05:22.847Z,21.68
2019-05-29T20:07:51.336Z,8.43
2019-05-29T20:10:19.557Z,24.85
2019-05-29T20:12:47.786Z,7.53
2019-05-29T20:15:16.043Z,11.12
2019-05-29T20:17:44.267Z,10.32
2019-05-29T20:20:12.868Z,7.47
2019-05-29T20:22:41.146Z,8.23
2019-05-29T20:25:13.226Z,11.22
2019-05-29T20:27:39.325Z,8.38
2019-05-29T20:30:09.153Z,9.10
2019-05-29T20:32:37.385Z,8.08
2019-05-29T20:35:06.935Z,23.27
2019-05-29T20:37:36.301Z,24.30
2019-05-29T20:40:06.106Z,9.70
2019-05-29T20:42:34.315Z,11.18
2019-05-29T20:45:03.794Z,6.70
2019-05-29T20:47:32.057Z,13.15
2019-05-29T20:50:00.234Z,13.08
2019-05-29T20:52:28.499Z,11.28
2019-05-29T20:54:58.658Z,9.63
2019-05-29T20:57:26.583Z,8.25
2019-05-29T20:59:54.837Z,11.05
2019-05-29T21:02:23.151Z,12.98
2019-05-29T21:04:51.497Z,9.80
2019-05-29T21:07:19.760Z,10.80
2019-05-29T21:09:47.958Z,8.10
2019-05-29T21:12:16.101Z,9.65
2019-05-29T21:14:44.729Z,10.93
2019-05-29T21:17:13.190Z,11.50
2019-05-29T21:19:42.432Z,14.70
2019-05-29T21:22:10.804Z,13.15
2019-05-29T21:24:40.624Z,11.53
2019-05-29T21:27:09.282Z,11.73
2019-05-29T21:29:37.565Z,12.03
2019-05-29T21:32:05.810Z,11.88
2019-05-29T21:34:34.029Z,10.90
2019-05-29T21:37:02.286Z,8.08
2019-05-29T21:39:30.493Z,8.20
2019-05-29T21:41:58.667Z,9.28
2019-05-29T21:44:26.901Z,11.65
2019-05-29T21:46:55.069Z,11.80
2019-05-29T21:49:23.335Z,53.48
2019-05-29T21:51:51.625Z,19.85
2019-05-29T21:54:19.872Z,15.05
2019-05-29T21:56:48.104Z,9.75
2019-05-29T21:59:16.339Z,9.05
2019-05-29T22:01:44.507Z,13.62
2019-05-29T22:04:12.753Z,9.63
2019-05-29T22:06:41.091Z,6.95
2019-05-29T22:09:13.339Z,9.08
2019-05-29T22:11:41.844Z,6.30
2019-05-29T22:14:10.377Z,8.23
2019-05-29T22:16:38.655Z,12.10
2019-05-29T22:19:07.068Z,10.18
2019-05-29T22:21:35.319Z,8.88
2019-05-29T22:24:03.865Z,8.00
2019-05-29T22:26:32.109Z,10.82
2019-05-29T22:29:16.727Z,11.95
2019-05-29T22:31:30.268Z,11.75
2019-05-29T22:33:59.487Z,8.00
2019-05-29T22:36:28.016Z,12.85
2019-05-29T22:38:57.399Z,7.45
2019-05-29T22:41:26.012Z,9.28
2019-05-29T22:43:55.394Z,6.10
2019-05-29T22:46:23.710Z,10.18
2019-05-29T22:48:51.913Z,9.08
2019-05-29T22:51:20.480Z,7.22
2019-05-29T22:53:48.685Z,7.95
2019-05-29T22:56:16.926Z,7.97
2019-05-29T22:58:45.178Z,9.95
2019-05-29T23:01:13.418Z,8.45
2019-05-29T23:03:41.634Z,6.65
2019-05-29T23:06:09.917Z,7.50
2019-05-29T23:08:38.136Z,6.33
2019-05-29T23:11:06.385Z,9.83
2019-05-29T23:13:35.209Z,10.32
2019-05-29T23:16:03.514Z,5.78
2019-05-29T23:18:31.802Z,4.85
2019-05-29T23:21:00.648Z,10.65
2019-05-29T23:23:29.102Z,7.22
2019-05-29T23:25:57.302Z,7.85
2019-05-29T23:28:25.594Z,4.17
2019-05-29T23:30:54.672Z,9.58
2019-05-29T23:33:23.230Z,10.23
2019-05-29T23:35:52.814Z,8.85
2019-05-29T23:38:21.472Z,10.18
2019-05-29T23:40:49.711Z,5.08
2019-05-29T23:43:18.004Z,7.05
2019-05-29T23:45:46.218Z,6.95
2019-05-29T23:48:14.474Z,5.83
2019-05-29T23:50:42.710Z,7.30
2019-05-29T23:53:10.851Z,2.67
2019-05-29T23:55:39.058Z,9.78
2019-05-29T23:58:08.382Z,5.40
